createdAt,value
2019-03-29T00:02:13.618Z,22.00
2019-03-29T00:04:43.852Z,19.00
2019-03-29T00:07:14.075Z,24.93
2019-03-29T00:09:44.583Z,26.83
2019-03-29T00:12:14.754Z,22.60
2019-03-29T00:14:44.943Z,26.27
2019-03-29T00:17:15.137Z,19.27
2019-03-29T00:19:45.543Z,24.53
2019-03-29T00:22:15.895Z,26.13
2019-03-29T00:24:46.075Z,22.50
2019-03-29T00:27:17.076Z,23.30
2019-03-29T00:29:47.247Z,24.77
2019-03-29T00:32:17.424Z,23.63
2019-03-29T00:34:47.952Z,28.77
2019-03-29T00:37:18.304Z,24.30
2019-03-29T00:39:48.574Z,21.77
2019-03-29T00:42:19.420Z,23.97
2019-03-29T00:44:49.650Z,22.30
2019-03-29T00:47:19.827Z,19.83
2019-03-29T00:49:50.047Z,21.00
2019-03-29T00:52:20.883Z,21.57
2019-03-29T00:54:51.064Z,19.37
2019-03-29T00:57:21.271Z,21.20
2019-03-29T00:59:51.494Z,22.43
2019-03-29T01:02:21.962Z,23.03
2019-03-29T01:04:53.090Z,22.30
2019-03-29T01:07:24.233Z,22.57
2019-03-29T01:09:54.511Z,23.47
2019-03-29T01:12:24.690Z,22.63
2019-03-29T01:14:55.207Z,22.40
2019-03-29T01:17:25.415Z,22.77
2019-03-29T01:19:56.104Z,24.77
2019-03-29T01:22:26.547Z,18.27
2019-03-29T01:24:56.747Z,25.53
2019-03-29T01:27:27.250Z,20.93
2019-03-29T01:29:57.424Z,23.90
2019-03-29T01:32:27.601Z,22.83
2019-03-29T01:34:57.801Z,22.63
2019-03-29T01:37:28.047Z,24.90
2019-03-29T01:39:58.295Z,23.87
2019-03-29T01:42:28.514Z,19.67
2019-03-29T01:44:58.971Z,23.77
2019-03-29T01:47:29.933Z,23.93
2019-03-29T01:50:00.482Z,24.53
2019-03-29T01:52:31.630Z,26.80
2019-03-29T01:55:02.418Z,30.73
2019-03-29T01:57:32.900Z,26.07
2019-03-29T02:00:03.379Z,24.13
2019-03-29T02:02:35.651Z,23.17
2019-03-29T02:05:06.738Z,28.13
2019-03-29T02:07:38.078Z,28.33
2019-03-29T02:10:09.502Z,27.07
2019-03-29T02:12:39.713Z,27.80
2019-03-29T02:15:11.313Z,29.23
2019-03-29T02:17:42.770Z,26.00
2019-03-29T02:20:13.256Z,26.23
2019-03-29T02:22:43.471Z,31.00
2019-03-29T02:25:15.322Z,27.87
2019-03-29T02:27:46.341Z,26.00
2019-03-29T02:30:17.323Z,28.00
2019-03-29T02:32:47.906Z,27.93
2019-03-29T02:35:18.723Z,27.93
2019-03-29T02:37:48.901Z,28.73
2019-03-29T02:40:19.097Z,28.07
2019-03-29T02:42:49.356Z,28.33
2019-03-29T02:45:19.528Z,28.57
2019-03-29T02:47:49.707Z,27.67
2019-03-29T02:50:20.203Z,27.80
2019-03-29T02:52:50.363Z,29.10
2019-03-29T02:55:20.541Z,26.67
2019-03-29T02:57:51.408Z,29.00
2019-03-29T03:00:21.739Z,25.67
2019-03-29T03:02:52.163Z,26.23
2019-03-29T03:05:22.426Z,28.83
2019-03-29T03:07:53.133Z,26.83
2019-03-29T03:10:23.941Z,30.50
2019-03-29T03:12:54.104Z,29.27
2019-03-29T03:15:24.644Z,28.13
2019-03-29T03:17:54.872Z,31.53
2019-03-29T03:20:25.305Z,27.63
2019-03-29T03:22:55.562Z,24.60
2019-03-29T03:25:26.377Z,27.82
2019-03-29T03:27:56.900Z,28.57
2019-03-29T03:30:27.198Z,25.80
2019-03-29T03:32:57.676Z,29.37
2019-03-29T03:35:28.251Z,29.43
2019-03-29T03:37:58.535Z,24.90
2019-03-29T03:40:29.308Z,27.80
2019-03-29T03:42:59.788Z,26.27
2019-03-29T03:45:29.968Z,27.40
2019-03-29T03:48:00.414Z,26.37
2019-03-29T03:50:42.297Z,27.13
2019-03-29T03:53:12.641Z,31.73
2019-03-29T03:55:43.554Z,26.80
2019-03-29T03:58:13.946Z,31.03
2019-03-29T04:00:55.668Z,26.73
2019-03-29T04:03:26.517Z,31.63
2019-03-29T04:05:57.272Z,28.90
2019-03-29T04:08:27.914Z,29.13
2019-03-29T04:10:59.053Z,27.27
2019-03-29T04:13:29.290Z,26.97
2019-03-29T04:15:59.473Z,25.40
2019-03-29T04:18:29.646Z,27.33
2019-03-29T04:20:59.960Z,28.40
2019-03-29T04:23:30.157Z,31.17
2019-03-29T04:26:00.604Z,26.27
2019-03-29T04:28:30.780Z,24.00
2019-03-29T04:31:01.347Z,25.83
2019-03-29T04:33:31.787Z,26.97
2019-03-29T04:36:02.381Z,29.80
2019-03-29T04:38:32.715Z,26.07
2019-03-29T04:41:03.063Z,27.40
2019-03-29T04:43:33.239Z,28.73
2019-03-29T04:46:03.810Z,26.07
2019-03-29T04:48:35.053Z,29.87
2019-03-29T04:51:05.232Z,30.73
2019-03-29T04:53:35.401Z,28.07
2019-03-29T04:56:06.136Z,27.90
2019-03-29T04:58:36.380Z,26.90
2019-03-29T05:01:07.335Z,27.67
2019-03-29T05:03:37.499Z,26.77
2019-03-29T05:06:07.932Z,28.93
2019-03-29T05:08:38.096Z,31.50
2019-03-29T05:11:09.217Z,30.70
2019-03-29T05:13:39.399Z,30.63
2019-03-29T05:16:09.574Z,32.07
2019-03-29T05:18:39.793Z,37.23
2019-03-29T05:21:10.224Z,32.80
2019-03-29T05:23:40.394Z,34.90
2019-03-29T05:26:10.569Z,40.57
2019-03-29T05:28:40.742Z,33.57
2019-03-29T05:31:10.914Z,32.40
2019-03-29T05:33:41.086Z,32.47
2019-03-29T05:36:12.041Z,32.70
2019-03-29T05:38:42.467Z,33.63
2019-03-29T05:41:12.643Z,37.70
2019-03-29T05:43:42.895Z,34.73
2019-03-29T05:46:14.369Z,32.33
2019-03-29T05:48:44.545Z,33.73
2019-03-29T05:51:14.852Z,31.30
2019-03-29T05:53:45.027Z,35.63
2019-03-29T05:56:16.534Z,32.83
2019-03-29T05:58:46.720Z,34.30
2019-03-29T06:01:16.881Z,29.80
2019-03-29T06:03:47.068Z,28.50
2019-03-29T06:06:17.495Z,27.77
2019-03-29T06:08:48.545Z,30.97
2019-03-29T06:11:19.276Z,26.40
2019-03-29T06:13:50.018Z,32.57
2019-03-29T06:16:20.443Z,27.70
2019-03-29T06:18:50.618Z,38.40
2019-03-29T06:21:21.563Z,33.87
2019-03-29T06:23:51.736Z,27.07
2019-03-29T06:26:22.529Z,29.77
2019-03-29T06:28:53.002Z,26.50
2019-03-29T06:31:23.953Z,27.70
2019-03-29T06:33:54.142Z,26.63
2019-03-29T06:36:26.923Z,24.83
2019-03-29T06:38:57.662Z,25.50
2019-03-29T06:41:27.834Z,24.27
2019-03-29T06:43:58.063Z,23.77
2019-03-29T06:46:28.267Z,24.00
2019-03-29T06:48:58.683Z,26.27
2019-03-29T06:51:28.928Z,26.67
2019-03-29T06:53:59.335Z,24.03
2019-03-29T06:56:29.615Z,27.33
2019-03-29T06:58:59.798Z,24.93
2019-03-29T07:01:30.024Z,26.30
2019-03-29T07:04:00.580Z,24.90
2019-03-29T07:06:30.797Z,28.67
2019-03-29T07:09:01.044Z,27.37
2019-03-29T07:11:33.120Z,24.50
2019-03-29T07:14:03.401Z,26.70
2019-03-29T07:16:33.572Z,26.67
2019-03-29T07:19:05.072Z,26.63
2019-03-29T07:21:35.556Z,24.93
2019-03-29T07:24:05.772Z,26.70
2019-03-29T07:26:36.212Z,28.00
2019-03-29T07:29:06.770Z,27.50
2019-03-29T07:31:36.942Z,25.50
2019-03-29T07:34:07.210Z,24.20
2019-03-29T07:36:37.402Z,25.73
2019-03-29T07:39:07.736Z,25.83
2019-03-29T07:41:37.910Z,25.43
2019-03-29T07:44:09.101Z,25.90
2019-03-29T07:46:39.343Z,28.77
2019-03-29T07:49:09.514Z,26.67
2019-03-29T07:51:39.692Z,29.80
2019-03-29T07:54:10.027Z,27.30
2019-03-29T07:56:40.208Z,30.17
2019-03-29T07:59:10.673Z,30.03
2019-03-29T08:01:40.931Z,29.00
2019-03-29T08:04:11.399Z,35.13
2019-03-29T08:06:41.624Z,28.27
2019-03-29T08:09:22.137Z,31.00
2019-03-29T08:11:46.585Z,30.07
2019-03-29T08:14:15.615Z,29.67
2019-03-29T08:16:45.812Z,31.17
2019-03-29T08:19:16.119Z,30.37
2019-03-29T08:21:46.779Z,28.93
2019-03-29T08:24:17.023Z,35.13
2019-03-29T08:26:48.059Z,30.83
2019-03-29T08:29:18.247Z,31.57
2019-03-29T08:31:48.517Z,28.87
2019-03-29T08:34:18.679Z,29.97
2019-03-29T08:36:48.871Z,30.10
2019-03-29T08:39:27.732Z,30.70
2019-03-29T08:42:00.026Z,29.07
2019-03-29T08:44:23.085Z,30.23
2019-03-29T08:46:53.277Z,32.33
2019-03-29T08:49:23.447Z,29.83
2019-03-29T08:51:53.632Z,26.53
2019-03-29T08:54:24.085Z,31.87
2019-03-29T08:56:54.507Z,29.17
2019-03-29T08:59:24.915Z,28.50
2019-03-29T09:01:55.104Z,27.47
2019-03-29T09:04:26.194Z,28.23
2019-03-29T09:06:56.436Z,25.87
2019-03-29T09:09:26.674Z,27.77
2019-03-29T09:11:56.859Z,26.47
2019-03-29T09:14:27.110Z,25.37
2019-03-29T09:16:57.282Z,24.00
2019-03-29T09:19:28.751Z,24.70
2019-03-29T09:21:58.935Z,25.13
2019-03-29T09:24:29.131Z,26.80
2019-03-29T09:26:59.309Z,25.43
2019-03-29T09:29:30.447Z,25.23
2019-03-29T09:32:00.634Z,24.67
2019-03-29T09:34:30.873Z,26.30
2019-03-29T09:37:01.150Z,23.70
2019-03-29T09:39:31.330Z,22.43
2019-03-29T09:42:01.820Z,23.77
2019-03-29T09:44:32.260Z,22.93
2019-03-29T09:47:02.556Z,23.87
2019-03-29T09:49:33.025Z,22.30
2019-03-29T09:52:03.299Z,23.37
2019-03-29T09:54:33.542Z,23.40
2019-03-29T09:57:03.882Z,24.90
2019-03-29T09:59:34.167Z,25.70
2019-03-29T10:02:04.455Z,26.53
2019-03-29T10:04:34.890Z,26.80
2019-03-29T10:07:05.142Z,24.97
2019-03-29T10:09:35.327Z,24.10
2019-03-29T10:12:05.643Z,26.70
2019-03-29T10:14:35.811Z,27.87
2019-03-29T10:17:05.974Z,27.27
2019-03-29T10:19:36.471Z,27.17
2019-03-29T10:22:06.729Z,25.63
2019-03-29T10:24:36.944Z,27.50
2019-03-29T10:27:07.370Z,27.20
2019-03-29T10:29:38.607Z,26.70
2019-03-29T10:32:09.533Z,29.57
2019-03-29T10:34:39.952Z,28.27
2019-03-29T10:37:10.211Z,27.37
2019-03-29T10:39:40.689Z,29.07
2019-03-29T10:42:10.856Z,28.43
2019-03-29T10:44:41.112Z,29.87
2019-03-29T10:47:11.384Z,29.80
2019-03-29T10:49:41.614Z,27.13
2019-03-29T10:52:11.952Z,27.87
2019-03-29T10:54:42.130Z,30.10
2019-03-29T10:57:12.641Z,29.77
2019-03-29T10:59:42.944Z,30.07
2019-03-29T11:02:13.139Z,27.57
2019-03-29T11:04:43.383Z,28.77
2019-03-29T11:07:13.576Z,32.30
2019-03-29T11:09:43.780Z,29.57
2019-03-29T11:12:14.322Z,30.70
2019-03-29T11:14:44.750Z,29.53
2019-03-29T11:17:15.239Z,33.63
2019-03-29T11:19:45.750Z,31.77
2019-03-29T11:22:16.042Z,29.80
2019-03-29T11:24:46.300Z,31.57
2019-03-29T11:27:16.557Z,33.37
2019-03-29T11:29:46.731Z,29.33
2019-03-29T11:32:17.122Z,30.83
2019-03-29T11:34:47.299Z,31.87
2019-03-29T11:37:17.523Z,31.97
2019-03-29T11:39:47.737Z,33.60
2019-03-29T11:42:18.074Z,34.00
2019-03-29T11:44:48.307Z,33.83
2019-03-29T11:47:18.735Z,33.63
2019-03-29T11:49:52.848Z,31.77
2019-03-29T11:52:21.018Z,34.40
2019-03-29T11:54:51.195Z,36.53
2019-03-29T11:57:21.455Z,35.87
2019-03-29T11:59:51.694Z,35.33
2019-03-29T12:02:31.184Z,34.10
2019-03-29T12:04:54.404Z,37.37
2019-03-29T12:07:25.242Z,34.30
2019-03-29T12:09:56.071Z,35.87
2019-03-29T12:12:27.702Z,36.53
2019-03-29T12:14:58.135Z,34.57
2019-03-29T12:17:28.444Z,35.90
2019-03-29T12:19:58.793Z,35.33
2019-03-29T12:22:29.399Z,33.67
2019-03-29T12:25:00.355Z,35.73
2019-03-29T12:27:30.692Z,37.47
2019-03-29T12:30:01.139Z,36.88
2019-03-29T12:32:31.655Z,37.23
2019-03-29T12:35:01.833Z,38.67
2019-03-29T12:37:31.998Z,37.77
2019-03-29T12:40:02.174Z,33.87
2019-03-29T12:42:32.349Z,37.63
2019-03-29T12:45:02.858Z,36.20
2019-03-29T12:47:33.283Z,34.93
2019-03-29T12:50:03.533Z,35.90
2019-03-29T12:52:33.854Z,37.43
2019-03-29T12:55:04.138Z,34.60
2019-03-29T12:57:34.368Z,33.73
2019-03-29T13:00:05.234Z,37.80
2019-03-29T13:02:35.815Z,35.60
2019-03-29T13:05:06.762Z,38.27
2019-03-29T13:07:37.240Z,37.77
2019-03-29T13:10:07.958Z,36.03
2019-03-29T13:12:39.127Z,34.73
2019-03-29T13:15:09.774Z,35.50
2019-03-29T13:17:40.687Z,37.60
2019-03-29T13:20:11.327Z,34.57
2019-03-29T13:22:41.722Z,36.03
2019-03-29T13:25:13.458Z,35.37
2019-03-29T13:27:43.930Z,33.73
2019-03-29T13:30:17.176Z,33.97
2019-03-29T13:32:46.431Z,35.20
2019-03-29T13:35:17.159Z,33.87
2019-03-29T13:37:47.382Z,34.20
2019-03-29T13:40:21.048Z,33.33
2019-03-29T13:42:50.205Z,35.47
2019-03-29T13:45:20.902Z,38.43
2019-03-29T13:47:51.071Z,38.53
2019-03-29T13:50:21.254Z,38.50
2019-03-29T13:52:51.494Z,37.47
2019-03-29T13:55:21.920Z,35.90
2019-03-29T13:57:52.905Z,35.10
2019-03-29T14:00:23.090Z,35.43
2019-03-29T14:02:53.316Z,34.20
2019-03-29T14:05:23.597Z,33.87
2019-03-29T14:07:53.875Z,35.67
2019-03-29T14:10:24.220Z,33.77
2019-03-29T14:12:54.507Z,34.53
2019-03-29T14:15:25.142Z,33.50
2019-03-29T14:17:55.555Z,33.80
2019-03-29T14:20:33.789Z,34.67
2019-03-29T14:23:04.929Z,33.50
2019-03-29T14:25:35.166Z,35.57
2019-03-29T14:28:05.536Z,32.67
2019-03-29T14:30:36.079Z,35.50
2019-03-29T14:33:06.263Z,34.17
2019-03-29T14:35:36.748Z,34.60
2019-03-29T14:38:07.193Z,34.60
2019-03-29T14:40:37.895Z,34.97
2019-03-29T14:43:08.083Z,34.97
2019-03-29T14:45:38.288Z,34.50
2019-03-29T14:48:08.556Z,33.50
2019-03-29T14:50:39.560Z,34.07
2019-03-29T14:53:09.730Z,34.23
2019-03-29T14:55:39.912Z,37.27
2019-03-29T14:58:10.098Z,36.27
2019-03-29T15:00:42.755Z,34.23
2019-03-29T15:03:13.718Z,36.63
2019-03-29T15:05:43.958Z,37.77
2019-03-29T15:08:14.440Z,37.03
2019-03-29T15:10:46.020Z,37.93
2019-03-29T15:13:16.586Z,36.03
2019-03-29T15:15:47.770Z,37.13
2019-03-29T15:18:18.098Z,38.57
2019-03-29T15:20:53.737Z,36.57
2019-03-29T15:23:20.444Z,39.93
2019-03-29T15:25:50.606Z,37.63
2019-03-29T15:28:20.866Z,34.83
2019-03-29T15:30:52.518Z,35.70
2019-03-29T15:33:22.899Z,32.43
2019-03-29T15:35:53.101Z,34.90
2019-03-29T15:38:23.351Z,34.47
2019-03-29T15:40:53.510Z,37.47
2019-03-29T15:43:23.692Z,39.50
2019-03-29T15:45:54.151Z,37.50
2019-03-29T15:48:24.339Z,37.13
2019-03-29T15:50:54.853Z,37.80
2019-03-29T15:53:25.395Z,36.03
2019-03-29T15:55:55.573Z,38.07
2019-03-29T15:58:25.811Z,39.50
2019-03-29T16:00:56.314Z,35.13
2019-03-29T16:03:26.568Z,33.97
2019-03-29T16:05:57.252Z,33.37
2019-03-29T16:08:27.536Z,34.87
2019-03-29T16:10:57.717Z,33.33
2019-03-29T16:13:28.032Z,36.87
2019-03-29T16:15:58.311Z,33.70
2019-03-29T16:18:29.259Z,33.40
2019-03-29T16:20:59.680Z,35.63
2019-03-29T16:23:29.906Z,34.00
2019-03-29T16:26:00.379Z,34.90
2019-03-29T16:28:30.776Z,32.40
2019-03-29T16:31:01.539Z,33.50
2019-03-29T16:33:32.647Z,34.00
2019-03-29T16:36:03.122Z,31.80
2019-03-29T16:38:33.352Z,34.00
2019-03-29T16:41:03.720Z,37.00
2019-03-29T16:43:33.974Z,31.80
2019-03-29T16:46:04.397Z,34.53
2019-03-29T16:48:34.688Z,32.77
2019-03-29T16:51:05.354Z,34.80
2019-03-29T16:53:36.304Z,33.03
2019-03-29T16:56:07.079Z,35.53
2019-03-29T16:58:37.291Z,34.20
2019-03-29T17:01:07.839Z,34.50
2019-03-29T17:03:38.089Z,36.23
2019-03-29T17:06:08.276Z,35.23
2019-03-29T17:08:38.814Z,36.63
2019-03-29T17:11:09.552Z,35.50
2019-03-29T17:13:41.215Z,37.53
2019-03-29T17:16:11.731Z,35.53
2019-03-29T17:18:42.011Z,35.67
2019-03-29T17:21:12.641Z,40.43
2019-03-29T17:23:43.003Z,38.93
2019-03-29T17:26:13.192Z,38.63
2019-03-29T17:28:43.382Z,43.73
2019-03-29T17:31:14.500Z,42.47
2019-03-29T17:33:44.944Z,45.10
2019-03-29T17:36:15.139Z,40.77
2019-03-29T17:38:45.579Z,42.33
2019-03-29T17:41:15.783Z,39.87
2019-03-29T17:43:46.046Z,42.17
2019-03-29T17:46:17.133Z,41.63
2019-03-29T17:48:47.425Z,39.37
2019-03-29T17:51:17.928Z,39.20
2019-03-29T17:53:48.304Z,39.70
2019-03-29T17:56:18.644Z,39.50
2019-03-29T17:58:48.803Z,38.90
2019-03-29T18:01:18.979Z,44.73
2019-03-29T18:03:49.464Z,47.17
2019-03-29T18:06:19.694Z,41.27
2019-03-29T18:08:50.044Z,43.10
2019-03-29T18:11:20.522Z,41.13
2019-03-29T18:13:50.687Z,41.40
2019-03-29T18:16:30.635Z,37.53
2019-03-29T18:18:52.830Z,40.23
2019-03-29T18:21:23.003Z,38.97
2019-03-29T18:23:53.830Z,43.67
2019-03-29T18:26:24.332Z,41.43
2019-03-29T18:28:54.815Z,36.33
2019-03-29T18:31:25.003Z,43.53
2019-03-29T18:33:55.260Z,45.90
2019-03-29T18:36:25.735Z,44.23
2019-03-29T18:38:55.902Z,35.07
2019-03-29T18:41:26.159Z,36.67
2019-03-29T18:43:56.338Z,34.93
2019-03-29T18:46:27.043Z,36.83
2019-03-29T18:48:57.487Z,38.73
2019-03-29T18:51:27.662Z,40.90
2019-03-29T18:53:58.397Z,43.23
2019-03-29T18:56:28.958Z,42.40
2019-03-29T18:58:59.468Z,43.30
2019-03-29T19:01:29.640Z,43.43
2019-03-29T19:04:00.201Z,44.00
2019-03-29T19:06:31.772Z,36.60
2019-03-29T19:09:02.020Z,34.93
2019-03-29T19:11:33.818Z,33.97
2019-03-29T19:14:04.206Z,39.43
2019-03-29T19:16:34.414Z,39.13
2019-03-29T19:19:10.239Z,34.23
2019-03-29T19:21:36.487Z,35.53
2019-03-29T19:24:06.694Z,38.33
2019-03-29T19:26:37.935Z,36.13
2019-03-29T19:29:08.205Z,37.07
2019-03-29T19:31:38.528Z,36.77
2019-03-29T19:34:08.736Z,39.33
2019-03-29T19:36:38.915Z,42.80
2019-03-29T19:39:10.165Z,41.67
2019-03-29T19:41:40.901Z,47.30
2019-03-29T19:44:13.690Z,41.27
2019-03-29T19:46:43.209Z,44.80
2019-03-29T19:49:13.739Z,51.10
2019-03-29T19:51:44.168Z,46.40
2019-03-29T19:54:14.443Z,41.27
2019-03-29T19:56:44.854Z,43.30
2019-03-29T19:59:15.123Z,44.23
2019-03-29T20:01:45.695Z,38.50
2019-03-29T20:04:15.952Z,40.17
2019-03-29T20:06:46.140Z,42.27
2019-03-29T20:09:16.310Z,37.83
2019-03-29T20:11:46.626Z,37.13
2019-03-29T20:14:16.812Z,39.20
2019-03-29T20:16:47.400Z,38.77
2019-03-29T20:19:20.043Z,38.37
2019-03-29T20:21:50.558Z,44.47
2019-03-29T20:24:21.039Z,44.70
2019-03-29T20:26:51.202Z,44.77
2019-03-29T20:29:21.927Z,49.03
2019-03-29T20:31:53.102Z,44.97
2019-03-29T20:34:24.304Z,46.90
2019-03-29T20:36:54.471Z,36.10
2019-03-29T20:39:24.891Z,40.33
2019-03-29T20:41:55.128Z,36.97
2019-03-29T20:44:25.350Z,45.47
2019-03-29T20:46:55.545Z,41.83
2019-03-29T20:49:26.018Z,43.40
2019-03-29T20:51:56.354Z,42.30
2019-03-29T20:54:26.524Z,42.07
2019-03-29T20:56:56.993Z,47.00
2019-03-29T20:59:27.156Z,40.73
2019-03-29T21:01:57.327Z,40.80
2019-03-29T21:04:28.870Z,41.07
2019-03-29T21:06:59.043Z,43.53
2019-03-29T21:09:29.207Z,44.40
2019-03-29T21:11:59.479Z,42.57
2019-03-29T21:14:29.972Z,40.03
2019-03-29T21:17:00.618Z,40.27
2019-03-29T21:19:30.795Z,39.97
2019-03-29T21:22:01.054Z,39.90
2019-03-29T21:24:31.243Z,41.33
2019-03-29T21:27:01.436Z,43.70
2019-03-29T21:29:31.615Z,44.10
2019-03-29T21:32:01.799Z,44.67
2019-03-29T21:34:32.007Z,45.83
2019-03-29T21:37:02.225Z,42.43
2019-03-29T21:39:32.386Z,49.03
2019-03-29T21:42:02.684Z,53.60
2019-03-29T21:44:32.899Z,56.23
2019-03-29T21:47:03.090Z,53.97
2019-03-29T21:49:33.247Z,52.30
2019-03-29T21:52:03.530Z,48.13
2019-03-29T21:54:33.691Z,50.17
2019-03-29T21:57:03.959Z,54.07
2019-03-29T21:59:34.390Z,55.93
2019-03-29T22:02:04.563Z,56.93
2019-03-29T22:04:34.727Z,56.93
2019-03-29T22:07:04.987Z,52.60
2019-03-29T22:09:37.126Z,51.33
2019-03-29T22:12:07.292Z,47.00
2019-03-29T22:14:37.506Z,47.57
2019-03-29T22:17:07.956Z,48.27
2019-03-29T22:19:38.296Z,45.83
2019-03-29T22:22:08.466Z,46.60
2019-03-29T22:24:38.909Z,43.17
2019-03-29T22:27:09.099Z,33.70
2019-03-29T22:29:39.259Z,33.30
2019-03-29T22:32:09.478Z,36.17
2019-03-29T22:34:39.730Z,48.17
2019-03-29T22:37:10.217Z,50.47
2019-03-29T22:39:40.380Z,50.07
2019-03-29T22:42:10.564Z,58.10
2019-03-29T22:44:40.718Z,58.60
2019-03-29T22:47:11.426Z,59.67
2019-03-29T22:49:41.582Z,60.97
2019-03-29T22:52:11.808Z,61.50
2019-03-29T22:54:42.024Z,58.13
2019-03-29T22:57:12.188Z,57.37
2019-03-29T22:59:42.431Z,49.70
2019-03-29T23:02:12.961Z,54.27
2019-03-29T23:04:43.512Z,48.80
2019-03-29T23:07:13.741Z,51.43
2019-03-29T23:09:43.983Z,54.00
2019-03-29T23:12:14.170Z,57.73
2019-03-29T23:14:44.336Z,47.53
2019-03-29T23:17:14.507Z,42.43
2019-03-29T23:19:44.754Z,41.23
2019-03-29T23:22:15.978Z,44.47
2019-03-29T23:24:46.414Z,41.03
2019-03-29T23:27:16.661Z,39.93
2019-03-29T23:29:47.256Z,38.13
2019-03-29T23:32:17.403Z,42.03
2019-03-29T23:34:47.891Z,42.43
2019-03-29T23:37:18.149Z,43.30
2019-03-29T23:39:48.382Z,41.60
2019-03-29T23:42:18.598Z,43.33
2019-03-29T23:44:48.842Z,42.77
2019-03-29T23:47:19.079Z,42.10
2019-03-29T23:49:49.383Z,41.90
2019-03-29T23:52:19.666Z,40.67
2019-03-29T23:54:49.920Z,44.93
2019-03-29T23:57:20.151Z,44.50
2019-03-29T23:59:50.603Z,50.63
